sensor_id;sensor_type;location;lat;lon;timestamp;pressure;altitude;pressure_sealevel;temperature;humidity
16094;BME280;8151;47.824;12.092;2022-10-31T00:01:23;96750.66;;;13.76;71.30
16094;BME280;8151;47.824;12.092;2022-10-31T00:03:52;96755.00;;;13.69;71.14
16094;BME280;8151;47.824;12.092;2022-10-31T00:06:22;96753.31;;;13.53;71.80
16094;BME280;8151;47.824;12.092;2022-10-31T00:08:52;96756.88;;;13.37;72.20
16094;BME280;8151;47.824;12.092;2022-10-31T00:11:21;96762.16;;;13.46;72.34
16094;BME280;8151;47.824;12.092;2022-10-31T00:13:52;96760.25;;;13.54;72.13
16094;BME280;8151;47.824;12.092;2022-10-31T00:16:22;96759.56;;;13.61;72.12
16094;BME280;8151;47.824;12.092;2022-10-31T00:18:51;96764.84;;;13.69;71.83
16094;BME280;8151;47.824;12.092;2022-10-31T00:21:21;96760.09;;;13.56;71.98
16094;BME280;8151;47.824;12.092;2022-10-31T00:23:49;96758.91;;;13.58;72.33
16094;BME280;8151;47.824;12.092;2022-10-31T00:26:18;96761.31;;;13.68;72.14
16094;BME280;8151;47.824;12.092;2022-10-31T00:28:46;96763.94;;;13.76;71.90
16094;BME280;8151;47.824;12.092;2022-10-31T00:31:17;96756.31;;;13.73;71.71
16094;BME280;8151;47.824;12.092;2022-10-31T00:33:45;96764.28;;;13.73;71.89
16094;BME280;8151;47.824;12.092;2022-10-31T00:36:16;96759.06;;;13.80;71.57
16094;BME280;8151;47.824;12.092;2022-10-31T00:38:45;96761.13;;;13.93;71.24
16094;BME280;8151;47.824;12.092;2022-10-31T00:41:15;96763.72;;;14.01;70.89
16094;BME280;8151;47.824;12.092;2022-10-31T00:43:44;96762.81;;;14.09;70.77
16094;BME280;8151;47.824;12.092;2022-10-31T00:46:13;96758.13;;;14.11;70.93
16094;BME280;8151;47.824;12.092;2022-10-31T00:48:43;96755.47;;;14.11;70.81
16094;BME280;8151;47.824;12.092;2022-10-31T00:51:11;96761.66;;;14.11;70.75
16094;BME280;8151;47.824;12.092;2022-10-31T00:53:39;96755.84;;;14.08;71.02
16094;BME280;8151;47.824;12.092;2022-10-31T00:56:08;96759.03;;;14.03;71.08
16094;BME280;8151;47.824;12.092;2022-10-31T00:58:36;96758.56;;;13.99;71.38
16094;BME280;8151;47.824;12.092;2022-10-31T01:01:05;96753.81;;;13.95;71.70
16094;BME280;8151;47.824;12.092;2022-10-31T01:03:34;96757.81;;;13.91;71.83
16094;BME280;8151;47.824;12.092;2022-10-31T01:06:05;96764.09;;;13.98;71.79
16094;BME280;8151;47.824;12.092;2022-10-31T01:08:34;96749.91;;;14.06;71.39
16094;BME280;8151;47.824;12.092;2022-10-31T01:11:06;96747.41;;;14.04;71.34
16094;BME280;8151;47.824;12.092;2022-10-31T01:13:35;96752.91;;;14.03;71.66
16094;BME280;8151;47.824;12.092;2022-10-31T01:16:05;96743.28;;;14.02;71.61
16094;BME280;8151;47.824;12.092;2022-10-31T01:18:34;96748.00;;;13.91;71.68
16094;BME280;8151;47.824;12.092;2022-10-31T01:21:05;96750.78;;;13.98;71.92
16094;BME280;8151;47.824;12.092;2022-10-31T01:23:35;96750.75;;;13.83;72.07
16094;BME280;8151;47.824;12.092;2022-10-31T01:26:06;96748.81;;;13.77;72.37
16094;BME280;8151;47.824;12.092;2022-10-31T01:28:36;96749.56;;;13.86;71.87
16094;BME280;8151;47.824;12.092;2022-10-31T01:31:06;96746.38;;;13.90;71.63
16094;BME280;8151;47.824;12.092;2022-10-31T01:33:36;96750.78;;;13.98;71.37
16094;BME280;8151;47.824;12.092;2022-10-31T01:36:14;96740.41;;;14.03;71.03
16094;BME280;8151;47.824;12.092;2022-10-31T01:38:43;96739.59;;;14.03;71.01
16094;BME280;8151;47.824;12.092;2022-10-31T01:41:14;96741.69;;;13.92;71.10
16094;BME280;8151;47.824;12.092;2022-10-31T01:43:45;96738.97;;;13.77;71.66
16094;BME280;8151;47.824;12.092;2022-10-31T01:46:15;96739.22;;;13.68;71.84
16094;BME280;8151;47.824;12.092;2022-10-31T01:48:45;96739.56;;;13.65;71.82
16094;BME280;8151;47.824;12.092;2022-10-31T01:51:17;96730.25;;;13.69;71.83
16094;BME280;8151;47.824;12.092;2022-10-31T01:53:48;96733.84;;;13.76;71.51
16094;BME280;8151;47.824;12.092;2022-10-31T01:56:19;96738.16;;;13.77;71.18
16094;BME280;8151;47.824;12.092;2022-10-31T01:58:48;96735.03;;;13.73;71.13
16094;BME280;8151;47.824;12.092;2022-10-31T02:01:17;96729.88;;;13.72;71.26
16094;BME280;8151;47.824;12.092;2022-10-31T02:03:46;96730.44;;;13.67;71.11
16094;BME280;8151;47.824;12.092;2022-10-31T02:06:26;96720.16;;;13.64;71.18
16094;BME280;8151;47.824;12.092;2022-10-31T02:08:58;96719.88;;;13.59;71.09
16094;BME280;8151;47.824;12.092;2022-10-31T02:11:28;96720.38;;;13.54;71.35
16094;BME280;8151;47.824;12.092;2022-10-31T02:13:58;96720.28;;;13.48;71.36
16094;BME280;8151;47.824;12.092;2022-10-31T02:16:27;96716.50;;;13.42;71.27
16094;BME280;8151;47.824;12.092;2022-10-31T02:18:55;96723.88;;;13.24;71.59
16094;BME280;8151;47.824;12.092;2022-10-31T02:21:31;96724.13;;;13.14;71.74
16094;BME280;8151;47.824;12.092;2022-10-31T02:24:29;96725.91;;;13.22;71.84
16094;BME280;8151;47.824;12.092;2022-10-31T02:27:28;96721.78;;;13.19;71.86
16094;BME280;8151;47.824;12.092;2022-10-31T02:30:09;96722.47;;;13.13;71.79
16094;BME280;8151;47.824;12.092;2022-10-31T02:33:09;96726.66;;;13.07;72.06
16094;BME280;8151;47.824;12.092;2022-10-31T02:35:50;96720.03;;;13.03;71.91
16094;BME280;8151;47.824;12.092;2022-10-31T02:38:31;96719.72;;;12.98;72.15
16094;BME280;8151;47.824;12.092;2022-10-31T02:41:11;96714.56;;;13.05;72.13
16094;BME280;8151;47.824;12.092;2022-10-31T02:43:50;96723.19;;;13.07;71.85
16094;BME280;8151;47.824;12.092;2022-10-31T02:46:25;96729.47;;;13.06;71.64
16094;BME280;8151;47.824;12.092;2022-10-31T02:49:02;96728.94;;;13.10;71.54
16094;BME280;8151;47.824;12.092;2022-10-31T02:51:33;96723.94;;;13.15;71.30
16094;BME280;8151;47.824;12.092;2022-10-31T02:54:02;96724.28;;;13.12;71.24
16094;BME280;8151;47.824;12.092;2022-10-31T02:56:30;96726.94;;;13.12;71.36
16094;BME280;8151;47.824;12.092;2022-10-31T02:59:01;96724.13;;;13.14;71.30
16094;BME280;8151;47.824;12.092;2022-10-31T03:01:51;96727.25;;;13.17;71.29
16094;BME280;8151;47.824;12.092;2022-10-31T03:05:05;96732.75;;;13.16;71.29
16094;BME280;8151;47.824;12.092;2022-10-31T03:07:43;96723.84;;;13.00;71.60
16094;BME280;8151;47.824;12.092;2022-10-31T03:10:21;96725.75;;;12.92;71.85
16094;BME280;8151;47.824;12.092;2022-10-31T03:13:01;96732.41;;;12.88;71.69
16094;BME280;8151;47.824;12.092;2022-10-31T03:15:34;96716.81;;;12.85;71.79
16094;BME280;8151;47.824;12.092;2022-10-31T03:18:07;96728.56;;;12.90;71.80
16094;BME280;8151;47.824;12.092;2022-10-31T03:20:43;96728.03;;;12.95;71.75
16094;BME280;8151;47.824;12.092;2022-10-31T03:23:15;96730.19;;;12.99;71.71
16094;BME280;8151;47.824;12.092;2022-10-31T03:25:46;96732.47;;;13.03;71.63
16094;BME280;8151;47.824;12.092;2022-10-31T03:28:18;96740.97;;;12.98;71.73
16094;BME280;8151;47.824;12.092;2022-10-31T03:30:50;96741.81;;;12.98;71.53
16094;BME280;8151;47.824;12.092;2022-10-31T03:33:24;96743.00;;;12.96;71.74
16094;BME280;8151;47.824;12.092;2022-10-31T03:35:57;96743.31;;;12.93;71.80
16094;BME280;8151;47.824;12.092;2022-10-31T03:38:29;96742.50;;;12.92;71.72
16094;BME280;8151;47.824;12.092;2022-10-31T03:40:58;96747.97;;;12.91;71.66
16094;BME280;8151;47.824;12.092;2022-10-31T03:43:33;96742.41;;;12.77;71.66
16094;BME280;8151;47.824;12.092;2022-10-31T03:46:05;96739.09;;;12.75;71.55
16094;BME280;8151;47.824;12.092;2022-10-31T03:48:34;96736.84;;;12.64;71.67
16094;BME280;8151;47.824;12.092;2022-10-31T03:51:07;96738.19;;;12.52;71.94
16094;BME280;8151;47.824;12.092;2022-10-31T03:53:43;96739.69;;;12.46;72.15
16094;BME280;8151;47.824;12.092;2022-10-31T03:56:19;96744.50;;;12.43;72.14
16094;BME280;8151;47.824;12.092;2022-10-31T03:58:55;96739.22;;;12.34;72.14
16094;BME280;8151;47.824;12.092;2022-10-31T04:01:26;96741.59;;;12.29;72.33
16094;BME280;8151;47.824;12.092;2022-10-31T04:03:57;96733.94;;;12.34;72.35
16094;BME280;8151;47.824;12.092;2022-10-31T04:06:29;96738.91;;;12.37;72.26
16094;BME280;8151;47.824;12.092;2022-10-31T04:09:03;96729.44;;;12.43;72.10
16094;BME280;8151;47.824;12.092;2022-10-31T04:11:35;96733.22;;;12.49;72.03
16094;BME280;8151;47.824;12.092;2022-10-31T04:14:05;96729.25;;;12.53;71.99
16094;BME280;8151;47.824;12.092;2022-10-31T04:16:34;96732.38;;;12.56;71.79
16094;BME280;8151;47.824;12.092;2022-10-31T04:19:04;96736.63;;;12.66;71.66
16094;BME280;8151;47.824;12.092;2022-10-31T04:21:34;96733.81;;;12.67;71.53
16094;BME280;8151;47.824;12.092;2022-10-31T04:24:02;96739.63;;;12.71;71.45
16094;BME280;8151;47.824;12.092;2022-10-31T04:26:31;96743.41;;;12.76;71.32
16094;BME280;8151;47.824;12.092;2022-10-31T04:28:59;96735.41;;;12.85;70.79
16094;BME280;8151;47.824;12.092;2022-10-31T04:31:28;96736.59;;;12.82;70.66
16094;BME280;8151;47.824;12.092;2022-10-31T04:33:56;96740.63;;;12.70;70.82
16094;BME280;8151;47.824;12.092;2022-10-31T04:36:25;96736.47;;;12.67;70.78
16094;BME280;8151;47.824;12.092;2022-10-31T04:38:55;96736.34;;;12.60;70.75
16094;BME280;8151;47.824;12.092;2022-10-31T04:41:23;96738.88;;;12.46;71.22
16094;BME280;8151;47.824;12.092;2022-10-31T04:43:51;96736.28;;;12.29;71.77
16094;BME280;8151;47.824;12.092;2022-10-31T04:46:20;96739.59;;;12.23;72.04
16094;BME280;8151;47.824;12.092;2022-10-31T04:48:48;96736.47;;;12.19;72.12
16094;BME280;8151;47.824;12.092;2022-10-31T04:51:17;96737.78;;;12.24;71.82
16094;BME280;8151;47.824;12.092;2022-10-31T04:53:45;96736.63;;;12.18;71.94
16094;BME280;8151;47.824;12.092;2022-10-31T04:56:15;96739.97;;;12.12;71.95
16094;BME280;8151;47.824;12.092;2022-10-31T04:58:43;96732.34;;;12.09;72.21
16094;BME280;8151;47.824;12.092;2022-10-31T05:01:12;96738.28;;;12.11;71.93
16094;BME280;8151;47.824;12.092;2022-10-31T05:03:40;96740.28;;;12.09;71.77
16094;BME280;8151;47.824;12.092;2022-10-31T05:06:09;96737.31;;;12.04;71.85
16094;BME280;8151;47.824;12.092;2022-10-31T05:08:37;96735.31;;;12.06;71.71
16094;BME280;8151;47.824;12.092;2022-10-31T05:11:05;96728.38;;;12.05;71.90
16094;BME280;8151;47.824;12.092;2022-10-31T05:13:35;96734.66;;;12.04;71.65
16094;BME280;8151;47.824;12.092;2022-10-31T05:16:04;96733.16;;;12.09;71.50
16094;BME280;8151;47.824;12.092;2022-10-31T05:18:32;96737.97;;;12.14;71.65
16094;BME280;8151;47.824;12.092;2022-10-31T05:21:01;96737.63;;;12.17;71.45
16094;BME280;8151;47.824;12.092;2022-10-31T05:23:29;96741.97;;;12.10;71.48
16094;BME280;8151;47.824;12.092;2022-10-31T05:25:57;96730.19;;;12.04;71.54
16094;BME280;8151;47.824;12.092;2022-10-31T05:28:26;96741.28;;;11.99;71.81
16094;BME280;8151;47.824;12.092;2022-10-31T05:30:56;96728.03;;;11.99;71.39
16094;BME280;8151;47.824;12.092;2022-10-31T05:33:25;96731.53;;;12.00;71.71
16094;BME280;8151;47.824;12.092;2022-10-31T05:35:53;96733.00;;;12.02;71.65
16094;BME280;8151;47.824;12.092;2022-10-31T05:38:22;96739.97;;;12.12;71.27
16094;BME280;8151;47.824;12.092;2022-10-31T05:40:54;96735.97;;;12.16;71.02
16094;BME280;8151;47.824;12.092;2022-10-31T05:43:24;96735.28;;;12.22;71.08
16094;BME280;8151;47.824;12.092;2022-10-31T05:45:53;96740.25;;;12.25;70.30
16094;BME280;8151;47.824;12.092;2022-10-31T05:48:22;96727.66;;;12.27;70.81
16094;BME280;8151;47.824;12.092;2022-10-31T05:50:51;96734.63;;;12.20;70.93
16094;BME280;8151;47.824;12.092;2022-10-31T05:53:20;96733.16;;;12.17;70.83
16094;BME280;8151;47.824;12.092;2022-10-31T05:55:48;96730.66;;;12.16;71.06
16094;BME280;8151;47.824;12.092;2022-10-31T05:58:16;96734.13;;;12.16;71.44
16094;BME280;8151;47.824;12.092;2022-10-31T06:00:45;96735.47;;;12.12;71.43
16094;BME280;8151;47.824;12.092;2022-10-31T06:03:13;96738.28;;;12.11;72.01
16094;BME280;8151;47.824;12.092;2022-10-31T06:05:43;96738.47;;;12.09;71.87
16094;BME280;8151;47.824;12.092;2022-10-31T06:08:26;96732.81;;;12.12;71.78
16094;BME280;8151;47.824;12.092;2022-10-31T06:10:55;96736.28;;;12.13;71.86
16094;BME280;8151;47.824;12.092;2022-10-31T06:13:23;96738.13;;;12.12;71.88
16094;BME280;8151;47.824;12.092;2022-10-31T06:15:52;96743.28;;;12.14;71.93
16094;BME280;8151;47.824;12.092;2022-10-31T06:18:20;96738.63;;;12.16;71.82
16094;BME280;8151;47.824;12.092;2022-10-31T06:20:50;96740.59;;;12.22;71.60
16094;BME280;8151;47.824;12.092;2022-10-31T06:23:18;96744.41;;;12.28;71.63
16094;BME280;8151;47.824;12.092;2022-10-31T06:25:49;96741.22;;;12.32;71.17
16094;BME280;8151;47.824;12.092;2022-10-31T06:28:17;96741.72;;;12.36;71.16
16094;BME280;8151;47.824;12.092;2022-10-31T06:30:46;96742.84;;;12.50;71.05
16094;BME280;8151;47.824;12.092;2022-10-31T06:33:14;96750.28;;;12.63;70.82
16094;BME280;8151;47.824;12.092;2022-10-31T06:35:45;96742.44;;;12.69;70.79
16094;BME280;8151;47.824;12.092;2022-10-31T06:38:15;96737.63;;;12.73;70.56
16094;BME280;8151;47.824;12.092;2022-10-31T06:40:43;96736.78;;;12.72;70.44
16094;BME280;8151;47.824;12.092;2022-10-31T06:43:12;96750.44;;;12.61;70.59
16094;BME280;8151;47.824;12.092;2022-10-31T06:45:41;96743.00;;;12.48;70.99
16094;BME280;8151;47.824;12.092;2022-10-31T06:48:10;96749.66;;;12.44;71.36
16094;BME280;8151;47.824;12.092;2022-10-31T06:50:44;96745.34;;;12.43;70.92
16094;BME280;8151;47.824;12.092;2022-10-31T06:53:12;96756.13;;;12.41;71.19
16094;BME280;8151;47.824;12.092;2022-10-31T06:55:42;96749.31;;;12.47;70.96
16094;BME280;8151;47.824;12.092;2022-10-31T06:58:11;96751.13;;;12.55;70.95
16094;BME280;8151;47.824;12.092;2022-10-31T07:00:39;96753.41;;;12.66;70.58
16094;BME280;8151;47.824;12.092;2022-10-31T07:03:11;96751.69;;;12.82;70.19
16094;BME280;8151;47.824;12.092;2022-10-31T07:05:40;96755.94;;;12.91;70.20
16094;BME280;8151;47.824;12.092;2022-10-31T07:08:11;96749.28;;;12.95;70.04
16094;BME280;8151;47.824;12.092;2022-10-31T07:10:41;96753.28;;;12.99;70.11
16094;BME280;8151;47.824;12.092;2022-10-31T07:13:12;96753.72;;;13.03;69.95
16094;BME280;8151;47.824;12.092;2022-10-31T07:15:42;96752.84;;;13.10;70.05
16094;BME280;8151;47.824;12.092;2022-10-31T07:18:12;96747.75;;;13.09;70.18
16094;BME280;8151;47.824;12.092;2022-10-31T07:20:40;96756.84;;;13.14;70.22
16094;BME280;8151;47.824;12.092;2022-10-31T07:23:09;96758.81;;;13.20;70.41
16094;BME280;8151;47.824;12.092;2022-10-31T07:25:38;96756.91;;;13.29;70.33
16094;BME280;8151;47.824;12.092;2022-10-31T07:28:07;96751.75;;;13.36;70.34
16094;BME280;8151;47.824;12.092;2022-10-31T07:30:37;96756.19;;;13.44;70.40
16094;BME280;8151;47.824;12.092;2022-10-31T07:33:06;96757.59;;;13.54;70.23
16094;BME280;8151;47.824;12.092;2022-10-31T07:35:34;96749.06;;;13.67;70.09
16094;BME280;8151;47.824;12.092;2022-10-31T07:38:10;96758.06;;;13.81;70.12
16094;BME280;8151;47.824;12.092;2022-10-31T07:40:39;96743.97;;;13.95;69.87
16094;BME280;8151;47.824;12.092;2022-10-31T07:43:08;96745.38;;;14.06;69.71
16094;BME280;8151;47.824;12.092;2022-10-31T07:45:42;96739.00;;;14.15;69.76
16094;BME280;8151;47.824;12.092;2022-10-31T07:48:10;96743.19;;;14.25;69.70
16094;BME280;8151;47.824;12.092;2022-10-31T07:50:38;96739.63;;;14.32;69.83
16094;BME280;8151;47.824;12.092;2022-10-31T07:53:08;96737.25;;;14.37;69.82
16094;BME280;8151;47.824;12.092;2022-10-31T07:55:38;96729.56;;;14.43;69.89
16094;BME280;8151;47.824;12.092;2022-10-31T07:58:08;96740.09;;;14.51;70.27
16094;BME280;8151;47.824;12.092;2022-10-31T08:00:38;96727.06;;;14.56;70.08
16094;BME280;8151;47.824;12.092;2022-10-31T08:03:09;96730.66;;;14.63;69.37
16094;BME280;8151;47.824;12.092;2022-10-31T08:05:38;96726.25;;;14.70;69.55
16094;BME280;8151;47.824;12.092;2022-10-31T08:08:08;96720.38;;;14.75;69.17
16094;BME280;8151;47.824;12.092;2022-10-31T08:10:36;96726.78;;;14.81;69.04
16094;BME280;8151;47.824;12.092;2022-10-31T08:13:06;96727.06;;;14.86;68.84
16094;BME280;8151;47.824;12.092;2022-10-31T08:15:36;96726.16;;;14.93;68.72
16094;BME280;8151;47.824;12.092;2022-10-31T08:18:11;96723.53;;;15.00;68.43
16094;BME280;8151;47.824;12.092;2022-10-31T08:20:40;96721.97;;;15.06;68.43
16094;BME280;8151;47.824;12.092;2022-10-31T08:23:09;96723.25;;;15.10;68.14
16094;BME280;8151;47.824;12.092;2022-10-31T08:25:38;96718.81;;;15.17;68.26
16094;BME280;8151;47.824;12.092;2022-10-31T08:28:09;96718.69;;;15.25;67.87
16094;BME280;8151;47.824;12.092;2022-10-31T08:30:38;96717.13;;;15.31;67.68
16094;BME280;8151;47.824;12.092;2022-10-31T08:33:12;96709.84;;;15.40;67.49
16094;BME280;8151;47.824;12.092;2022-10-31T08:35:41;96709.72;;;15.48;67.73
16094;BME280;8151;47.824;12.092;2022-10-31T08:38:10;96710.38;;;15.56;67.32
16094;BME280;8151;47.824;12.092;2022-10-31T08:40:39;96704.31;;;15.63;67.11
16094;BME280;8151;47.824;12.092;2022-10-31T08:43:11;96700.88;;;15.69;67.23
16094;BME280;8151;47.824;12.092;2022-10-31T08:45:40;96700.94;;;15.75;66.83
16094;BME280;8151;47.824;12.092;2022-10-31T08:48:12;96698.34;;;15.82;66.97
16094;BME280;8151;47.824;12.092;2022-10-31T08:50:41;96701.25;;;15.87;67.09
16094;BME280;8151;47.824;12.092;2022-10-31T08:53:11;96691.84;;;15.91;67.13
16094;BME280;8151;47.824;12.092;2022-10-31T08:55:41;96685.94;;;15.96;67.21
16094;BME280;8151;47.824;12.092;2022-10-31T08:58:12;96685.97;;;16.03;67.50
16094;BME280;8151;47.824;12.092;2022-10-31T09:00:41;96689.88;;;16.07;67.71
16094;BME280;8151;47.824;12.092;2022-10-31T09:03:13;96687.47;;;16.12;67.77
16094;BME280;8151;47.824;12.092;2022-10-31T09:05:41;96690.38;;;16.17;67.82
16094;BME280;8151;47.824;12.092;2022-10-31T09:08:10;96684.25;;;16.23;68.16
16094;BME280;8151;47.824;12.092;2022-10-31T09:10:43;96679.81;;;16.30;68.41
16094;BME280;8151;47.824;12.092;2022-10-31T09:13:13;96678.16;;;16.36;68.01
16094;BME280;8151;47.824;12.092;2022-10-31T09:15:43;96676.53;;;16.42;67.97
16094;BME280;8151;47.824;12.092;2022-10-31T09:18:15;96672.88;;;16.49;68.07
16094;BME280;8151;47.824;12.092;2022-10-31T09:20:45;96674.56;;;16.57;68.41
16094;BME280;8151;47.824;12.092;2022-10-31T09:23:15;96668.03;;;16.66;68.11
16094;BME280;8151;47.824;12.092;2022-10-31T09:25:46;96677.75;;;16.74;68.12
16094;BME280;8151;47.824;12.092;2022-10-31T09:28:19;96661.72;;;16.81;67.95
16094;BME280;8151;47.824;12.092;2022-10-31T09:30:49;96669.81;;;16.87;67.91
16094;BME280;8151;47.824;12.092;2022-10-31T09:33:20;96664.69;;;16.92;67.84
16094;BME280;8151;47.824;12.092;2022-10-31T09:35:49;96658.53;;;16.99;67.97
16094;BME280;8151;47.824;12.092;2022-10-31T09:38:18;96657.53;;;17.06;67.91
16094;BME280;8151;47.824;12.092;2022-10-31T09:40:49;96657.34;;;17.15;67.77
16094;BME280;8151;47.824;12.092;2022-10-31T09:43:26;96655.50;;;17.22;67.73
16094;BME280;8151;47.824;12.092;2022-10-31T09:46:02;96654.69;;;17.28;67.81
16094;BME280;8151;47.824;12.092;2022-10-31T09:48:50;96650.19;;;17.35;67.18
16094;BME280;8151;47.824;12.092;2022-10-31T09:51:28;96656.16;;;17.44;67.29
16094;BME280;8151;47.824;12.092;2022-10-31T09:54:03;96651.44;;;17.52;67.04
16094;BME280;8151;47.824;12.092;2022-10-31T09:56:33;96647.50;;;17.62;67.06
16094;BME280;8151;47.824;12.092;2022-10-31T09:59:05;96645.03;;;17.67;67.00
16094;BME280;8151;47.824;12.092;2022-10-31T10:01:42;96632.50;;;17.74;66.77
16094;BME280;8151;47.824;12.092;2022-10-31T10:04:30;96636.22;;;17.86;66.45
16094;BME280;8151;47.824;12.092;2022-10-31T10:07:05;96627.56;;;17.98;66.67
16094;BME280;8151;47.824;12.092;2022-10-31T10:09:36;96629.81;;;18.07;66.59
16094;BME280;8151;47.824;12.092;2022-10-31T10:12:12;96636.78;;;18.15;66.33
16094;BME280;8151;47.824;12.092;2022-10-31T10:14:54;96625.84;;;18.23;66.30
16094;BME280;8151;47.824;12.092;2022-10-31T10:17:35;96625.41;;;18.33;66.20
16094;BME280;8151;47.824;12.092;2022-10-31T10:20:23;96619.19;;;18.39;65.92
16094;BME280;8151;47.824;12.092;2022-10-31T10:23:03;96620.81;;;18.47;65.90
16094;BME280;8151;47.824;12.092;2022-10-31T10:25:38;96615.84;;;18.57;65.69
16094;BME280;8151;47.824;12.092;2022-10-31T10:28:17;96609.19;;;18.66;65.44
16094;BME280;8151;47.824;12.092;2022-10-31T10:30:50;96613.28;;;18.76;65.32
16094;BME280;8151;47.824;12.092;2022-10-31T10:33:21;96608.69;;;18.89;65.03
16094;BME280;8151;47.824;12.092;2022-10-31T10:35:56;96604.31;;;19.02;64.83
16094;BME280;8151;47.824;12.092;2022-10-31T10:38:30;96594.53;;;19.14;64.34
16094;BME280;8151;47.824;12.092;2022-10-31T10:41:04;96591.16;;;19.25;64.08
16094;BME280;8151;47.824;12.092;2022-10-31T10:43:35;96594.75;;;19.38;63.69
16094;BME280;8151;47.824;12.092;2022-10-31T10:46:19;96584.00;;;19.44;62.97
16094;BME280;8151;47.824;12.092;2022-10-31T10:49:16;96580.84;;;19.47;62.44
16094;BME280;8151;47.824;12.092;2022-10-31T10:51:52;96583.94;;;19.51;62.50
16094;BME280;8151;47.824;12.092;2022-10-31T10:54:48;96581.19;;;19.58;62.50
16094;BME280;8151;47.824;12.092;2022-10-31T10:57:36;96570.22;;;19.59;61.99
16094;BME280;8151;47.824;12.092;2022-10-31T11:00:17;96578.66;;;19.63;61.89
16094;BME280;8151;47.824;12.092;2022-10-31T11:02:46;96569.00;;;19.62;62.00
16094;BME280;8151;47.824;12.092;2022-10-31T11:05:22;96574.94;;;19.64;61.44
16094;BME280;8151;47.824;12.092;2022-10-31T11:07:53;96571.81;;;19.67;61.42
16094;BME280;8151;47.824;12.092;2022-10-31T11:10:21;96563.97;;;19.65;61.28
16094;BME280;8151;47.824;12.092;2022-10-31T11:16:33;96554.34;;;19.58;61.24
16094;BME280;8151;47.824;12.092;2022-10-31T11:19:13;96544.50;;;19.52;61.09
16094;BME280;8151;47.824;12.092;2022-10-31T11:21:45;96545.97;;;19.47;60.87
16094;BME280;8151;47.824;12.092;2022-10-31T11:24:23;96549.31;;;19.43;60.92
16094;BME280;8151;47.824;12.092;2022-10-31T11:27:09;96545.81;;;19.42;60.69
16094;BME280;8151;47.824;12.092;2022-10-31T11:29:39;96543.13;;;19.42;61.04
16094;BME280;8151;47.824;12.092;2022-10-31T11:32:17;96543.56;;;19.39;60.95
16094;BME280;8151;47.824;12.092;2022-10-31T11:34:48;96536.56;;;19.38;61.01
16094;BME280;8151;47.824;12.092;2022-10-31T11:37:21;96530.38;;;19.38;60.99
16094;BME280;8151;47.824;12.092;2022-10-31T11:39:52;96531.19;;;19.38;60.79
16094;BME280;8151;47.824;12.092;2022-10-31T11:42:23;96527.47;;;19.39;60.95
16094;BME280;8151;47.824;12.092;2022-10-31T11:44:54;96524.19;;;19.37;60.93
16094;BME280;8151;47.824;12.092;2022-10-31T11:47:26;96526.66;;;19.39;61.03
16094;BME280;8151;47.824;12.092;2022-10-31T11:49:56;96515.94;;;19.39;61.28
16094;BME280;8151;47.824;12.092;2022-10-31T11:52:27;96518.38;;;19.40;61.12
16094;BME280;8151;47.824;12.092;2022-10-31T11:55:00;96507.63;;;19.40;61.19
16094;BME280;8151;47.824;12.092;2022-10-31T11:57:32;96515.47;;;19.42;61.12
16094;BME280;8151;47.824;12.092;2022-10-31T12:00:03;96513.00;;;19.40;61.18
16094;BME280;8151;47.824;12.092;2022-10-31T12:02:32;96507.03;;;19.38;61.08
16094;BME280;8151;47.824;12.092;2022-10-31T12:05:06;96507.28;;;19.37;61.08
16094;BME280;8151;47.824;12.092;2022-10-31T12:07:36;96507.28;;;19.37;61.07
16094;BME280;8151;47.824;12.092;2022-10-31T12:10:10;96494.47;;;19.39;60.82
16094;BME280;8151;47.824;12.092;2022-10-31T12:12:54;96496.53;;;19.37;60.53
16094;BME280;8151;47.824;12.092;2022-10-31T12:15:31;96492.81;;;19.38;60.82
16094;BME280;8151;47.824;12.092;2022-10-31T12:18:21;96497.38;;;19.37;60.57
16094;BME280;8151;47.824;12.092;2022-10-31T12:21:00;96484.75;;;19.38;60.83
16094;BME280;8151;47.824;12.092;2022-10-31T12:23:40;96486.63;;;19.37;60.53
16094;BME280;8151;47.824;12.092;2022-10-31T12:26:19;96483.47;;;19.40;60.53
16094;BME280;8151;47.824;12.092;2022-10-31T12:29:07;96478.13;;;19.40;60.48
16094;BME280;8151;47.824;12.092;2022-10-31T12:31:52;96477.91;;;19.42;60.60
16094;BME280;8151;47.824;12.092;2022-10-31T12:34:50;96473.34;;;19.42;60.78
16094;BME280;8151;47.824;12.092;2022-10-31T12:37:33;96472.31;;;19.43;61.01
16094;BME280;8151;47.824;12.092;2022-10-31T12:40:30;96473.72;;;19.46;61.18
16094;BME280;8151;47.824;12.092;2022-10-31T12:43:18;96478.06;;;19.47;61.43
16094;BME280;8151;47.824;12.092;2022-10-31T12:45:53;96465.47;;;19.47;61.46
16094;BME280;8151;47.824;12.092;2022-10-31T12:48:50;96477.84;;;19.48;61.67
16094;BME280;8151;47.824;12.092;2022-10-31T12:51:31;96468.97;;;19.48;61.94
16094;BME280;8151;47.824;12.092;2022-10-31T12:54:15;96468.97;;;19.48;62.04
16094;BME280;8151;47.824;12.092;2022-10-31T12:56:55;96470.03;;;19.47;62.08
16094;BME280;8151;47.824;12.092;2022-10-31T12:59:31;96462.56;;;19.49;62.20
16094;BME280;8151;47.824;12.092;2022-10-31T13:02:10;96451.63;;;19.51;62.23
16094;BME280;8151;47.824;12.092;2022-10-31T13:04:47;96450.34;;;19.53;62.39
16094;BME280;8151;47.824;12.092;2022-10-31T13:07:21;96452.81;;;19.55;62.47
16094;BME280;8151;47.824;12.092;2022-10-31T13:09:55;96450.13;;;19.55;62.31
16094;BME280;8151;47.824;12.092;2022-10-31T13:12:27;96451.16;;;19.54;62.26
16094;BME280;8151;47.824;12.092;2022-10-31T13:15:12;96452.44;;;19.51;62.21
16094;BME280;8151;47.824;12.092;2022-10-31T13:17:46;96442.97;;;19.48;62.26
16094;BME280;8151;47.824;12.092;2022-10-31T13:20:21;96443.41;;;19.45;62.24
16094;BME280;8151;47.824;12.092;2022-10-31T13:22:54;96447.78;;;19.40;61.69
16094;BME280;8151;47.824;12.092;2022-10-31T13:25:25;96446.59;;;19.36;61.35
16094;BME280;8151;47.824;12.092;2022-10-31T13:27:59;96442.03;;;19.36;61.16
16094;BME280;8151;47.824;12.092;2022-10-31T13:30:33;96437.28;;;19.38;60.83
16094;BME280;8151;47.824;12.092;2022-10-31T13:33:08;96432.50;;;19.40;60.73